Time;durP1;ratioP1;P1;durP2;ratioP2;P2;SDS_P1;SDS_P2;PMS_P1;PMS_P2;Temp;Humidity;BMP_temperature;BMP_pressure;BME280_temperature;BME280_humidity;BME280_pressure;Samples;Min_cycle;Max_cycle;Signal;HPM_P1;HPM_P2
2022/09/04 00:01:54;;;;;;;4.40;1.40;;;;;;;;;;5029903;28;20045;-71
2022/09/04 00:04:21;;;;;;;4.82;1.35;;;;;;;;;;5036437;28;20115;-70
2022/09/04 00:06:57;;;;;;;7.68;1.92;;;;;;;;;;5038281;28;20045;-70
2022/09/04 00:09:32;;;;;;;4.15;1.33;;;;;;;;;;5035305;28;20053;-70
2022/09/04 00:12:03;;;;;;;3.75;1.48;;;;;;;;;;5041845;28;20049;-71
2022/09/04 00:14:32;;;;;;;6.97;1.48;;;;;;;;;;5039026;28;20048;-70
2022/09/04 00:17:02;;;;;;;4.88;1.20;;;;;;;;;;5039046;28;20055;-70
2022/09/04 00:19:28;;;;;;;6.63;1.55;;;;;;;;;;5036185;28;20045;-70
2022/09/04 00:21:57;;;;;;;5.80;1.63;;;;;;;;;;5033474;28;20085;-70
2022/09/04 00:24:25;;;;;;;3.88;1.40;;;;;;;;;;5034815;28;20041;-70
2022/09/04 00:26:58;;;;;;;5.47;1.95;;;;;;;;;;5037672;28;20071;-70
2022/09/04 00:29:36;;;;;;;3.83;1.45;;;;;;;;;;5039262;28;20045;-70
2022/09/04 00:32:10;;;;;;;3.15;1.48;;;;;;;;;;5039192;28;20053;-70
2022/09/04 00:34:36;;;;;;;;;;;;;;;;;;5040459;28;20079;-70
2022/09/04 00:37:04;;;;;;;7.20;1.35;;;;;;;;;;5036247;28;22047;-70
2022/09/04 00:39:45;;;;;;;5.25;1.05;;;;;;;;;;5045120;28;20053;-70
2022/09/04 00:42:36;;;;;;;3.80;1.40;;;;;;;;;;5047708;28;20179;-71
2022/09/04 00:45:15;;;;;;;7.35;1.50;;;;;;;;;;5043833;28;20063;-70
2022/09/04 00:47:52;;;;;;;7.90;1.50;;;;;;;;;;5045388;28;20469;-70
2022/09/04 00:50:38;;;;;;;3.42;1.38;;;;;;;;;;5041682;28;20067;-70
2022/09/04 00:53:05;;;;;;;5.88;1.83;;;;;;;;;;5043404;28;20456;-70
2022/09/04 00:55:44;;;;;;;6.43;1.67;;;;;;;;;;5039168;28;20132;-71
2022/09/04 00:58:27;;;;;;;4.15;1.83;;;;;;;;;;5040769;28;20056;-70
2022/09/04 01:00:56;;;;;;;3.75;1.30;;;;;;;;;;5041757;28;20455;-70
2022/09/04 01:03:22;;;;;;;5.30;1.73;;;;;;;;;;5049795;28;20130;-70
2022/09/04 01:05:48;;;;;;;3.22;1.50;;;;;;;;;;5053763;28;20083;-69
2022/09/04 01:08:16;;;;;;;6.00;1.63;;;;;;;;;;5049219;28;20067;-70
2022/09/04 01:10:42;;;;;;;5.25;1.65;;;;;;;;;;5051524;28;20044;-70
2022/09/04 01:13:21;;;;;;;4.15;1.48;;;;;;;;;;5044078;28;20052;-70
2022/09/04 01:15:55;;;;;;;6.57;1.77;;;;;;;;;;5042255;28;20315;-69
2022/09/04 01:18:30;;;;;;;4.15;1.38;;;;;;;;;;5041717;28;20145;-70
2022/09/04 01:20:59;;;;;;;5.95;1.92;;;;;;;;;;5040483;28;20508;-70
2022/09/04 01:23:28;;;;;;;9.18;1.70;;;;;;;;;;5036541;28;20476;-70
2022/09/04 01:26:00;;;;;;;4.07;1.60;;;;;;;;;;5042645;28;20464;-70
2022/09/04 01:28:29;;;;;;;4.03;1.88;;;;;;;;;;5044322;28;20134;-70
2022/09/04 01:31:00;;;;;;;5.15;1.67;;;;;;;;;;5042756;28;20397;-71
2022/09/04 01:33:27;;;;;;;6.72;1.60;;;;;;;;;;5039754;28;20053;-70
2022/09/04 01:36:10;;;;;;;10.20;2.00;;;;;;;;;;5038394;28;20077;-70
2022/09/04 01:38:37;;;;;;;6.25;2.03;;;;;;;;;;5044382;28;20119;-70
2022/09/04 01:41:11;;;;;;;6.57;1.80;;;;;;;;;;5035731;28;20075;-70
2022/09/04 01:43:37;;;;;;;5.53;1.40;;;;;;;;;;5051558;28;20364;-70
2022/09/04 01:46:20;;;;;;;3.70;1.50;;;;;;;;;;5038942;28;20428;-70
2022/09/04 01:49:03;;;;;;;6.25;1.52;;;;;;;;;;5044508;28;20127;-70
2022/09/04 01:51:39;;;;;;;5.03;1.70;;;;;;;;;;5045105;28;20045;-70
2022/09/04 01:54:20;;;;;;;7.30;1.88;;;;;;;;;;5041405;28;20307;-70
2022/09/04 01:57:06;;;;;;;4.75;1.70;;;;;;;;;;5036474;28;20037;-70
2022/09/04 01:59:38;;;;;;;3.65;1.73;;;;;;;;;;5043173;28;20120;-70
2022/09/04 02:02:04;;;;;;;5.60;1.95;;;;;;;;;;5043862;28;20048;-70
2022/09/04 02:04:39;;;;;;;11.77;2.13;;;;;;;;;;5046658;28;20049;-70
2022/09/04 02:07:23;;;;;;;5.85;1.90;;;;;;;;;;5044609;28;20044;-70
2022/09/04 02:09:49;;;;;;;6.20;1.70;;;;;;;;;;5043804;28;20053;-70
2022/09/04 02:12:24;;;;;;;9.80;2.20;;;;;;;;;;5061830;28;20060;-70
2022/09/04 02:15:05;;;;;;;5.00;2.25;;;;;;;;;;5040201;28;20049;-70
2022/09/04 02:17:34;;;;;;;3.50;1.60;;;;;;;;;;5043723;28;20508;-70
2022/09/04 02:20:08;;;;;;;6.38;1.83;;;;;;;;;;5038947;28;20044;-70
2022/09/04 02:22:40;;;;;;;6.40;1.80;;;;;;;;;;5034738;28;20424;-70
2022/09/04 02:25:07;;;;;;;5.63;1.77;;;;;;;;;;5039804;28;20049;-70
2022/09/04 02:27:40;;;;;;;5.60;1.73;;;;;;;;;;5036398;28;20045;-71
2022/09/04 02:30:09;;;;;;;7.32;1.90;;;;;;;;;;5042800;28;20429;-70
2022/09/04 02:32:38;;;;;;;3.88;1.58;;;;;;;;;;5046297;28;20198;-70
2022/09/04 02:35:08;;;;;;;10.05;1.95;;;;;;;;;;5049239;28;20041;-70
2022/09/04 02:37:45;;;;;;;7.07;2.15;;;;;;;;;;5040942;28;20045;-70
2022/09/04 02:40:22;;;;;;;5.88;2.10;;;;;;;;;;5049582;28;20080;-70
2022/09/04 02:43:00;;;;;;;4.60;1.80;;;;;;;;;;5037624;28;20143;-70
2022/09/04 02:45:41;;;;;;;9.30;2.05;;;;;;;;;;5043485;28;20468;-70
2022/09/04 02:48:19;;;;;;;4.90;1.73;;;;;;;;;;5040563;28;20054;-70
2022/09/04 02:50:49;;;;;;;7.10;2.03;;;;;;;;;;5040130;28;20769;-70
2022/09/04 02:53:18;;;;;;;5.35;1.95;;;;;;;;;;5046301;28;20059;-70
2022/09/04 02:55:56;;;;;;;5.07;1.90;;;;;;;;;;5057382;28;20045;-70
2022/09/04 02:58:26;;;;;;;7.15;1.92;;;;;;;;;;5040015;28;20504;-70
2022/09/04 03:00:59;;;;;;;8.77;2.13;;;;;;;;;;5039446;28;22069;-70
2022/09/04 03:03:35;;;;;;;6.97;1.88;;;;;;;;;;5035483;28;20509;-70
2022/09/04 03:06:06;;;;;;;7.13;1.88;;;;;;;;;;5063965;28;20041;-71
2022/09/04 03:08:36;;;;;;;4.95;1.85;;;;;;;;;;5036712;28;20155;-70
2022/09/04 03:11:10;;;;;;;5.07;1.80;;;;;;;;;;5038746;28;20485;-70
2022/09/04 03:13:47;;;;;;;4.88;1.60;;;;;;;;;;5037286;28;20044;-70
2022/09/04 03:16:22;;;;;;;7.60;1.92;;;;;;;;;;5037384;28;20052;-71
2022/09/04 03:18:49;;;;;;;8.65;2.50;;;;;;;;;;5042585;28;20052;-70
2022/09/04 03:21:18;;;;;;;5.82;1.48;;;;;;;;;;5054484;28;20044;-70
2022/09/04 03:23:47;;;;;;;6.05;1.92;;;;;;;;;;5043193;28;20443;-70
2022/09/04 03:26:28;;;;;;;4.30;1.70;;;;;;;;;;5037008;28;20033;-70
2022/09/04 03:29:00;;;;;;;6.47;1.70;;;;;;;;;;5041107;28;20041;-70
2022/09/04 03:31:29;;;;;;;8.38;1.80;;;;;;;;;;5048957;28;20135;-70
2022/09/04 03:34:07;;;;;;;6.90;2.50;;;;;;;;;;5045104;28;20049;-70
2022/09/04 03:36:34;;;;;;;4.45;1.90;;;;;;;;;;5041418;28;20049;-70
2022/09/04 03:39:09;;;;;;;6.65;2.03;;;;;;;;;;5037896;28;20095;-70
2022/09/04 03:41:36;;;;;;;7.55;1.88;;;;;;;;;;5041150;28;20045;-70
2022/09/04 03:44:07;;;;;;;5.32;1.83;;;;;;;;;;5026864;28;20124;-70
2022/09/04 03:46:46;;;;;;;7.88;2.45;;;;;;;;;;5052314;28;20487;-70
2022/09/04 03:49:21;;;;;;;7.70;2.25;;;;;;;;;;5039163;28;20045;-70
2022/09/04 03:51:54;;;;;;;5.38;2.13;;;;;;;;;;5036563;28;20128;-70
2022/09/04 03:54:31;;;;;;;5.45;1.92;;;;;;;;;;5038617;28;20090;-70
2022/09/04 03:57:04;;;;;;;3.78;1.90;;;;;;;;;;5036703;28;20057;-70
2022/09/04 03:59:39;;;;;;;5.35;1.83;;;;;;;;;;5048058;28;20044;-70
2022/09/04 04:02:11;;;;;;;4.97;1.95;;;;;;;;;;5031396;28;20056;-70
2022/09/04 04:04:37;;;;;;;6.85;2.28;;;;;;;;;;5035181;28;20138;-70
2022/09/04 04:07:06;;;;;;;6.95;2.20;;;;;;;;;;5037585;28;20044;-70
2022/09/04 04:09:43;;;;;;;4.65;2.05;;;;;;;;;;5033975;28;20185;-70
2022/09/04 04:12:25;;;;;;;10.73;2.20;;;;;;;;;;5038709;28;20198;-70
2022/09/04 04:14:59;;;;;;;4.70;2.50;;;;;;;;;;5032710;28;20053;-70
2022/09/04 04:17:25;;;;;;;4.32;1.98;;;;;;;;;;5043787;28;20049;-70
2022/09/04 04:20:01;;;;;;;5.25;2.17;;;;;;;;;;5022980;28;20045;-70
2022/09/04 04:22:44;;;;;;;5.15;2.10;;;;;;;;;;5033393;28;20143;-70
2022/09/04 04:25:20;;;;;;;6.03;2.35;;;;;;;;;;5035883;28;20041;-70
2022/09/04 04:27:59;;;;;;;6.70;2.35;;;;;;;;;;5036834;28;20048;-70
2022/09/04 04:30:28;;;;;;;8.07;2.08;;;;;;;;;;5034808;28;20049;-70
2022/09/04 04:33:07;;;;;;;7.40;2.30;;;;;;;;;;5035090;28;20041;-70
2022/09/04 04:35:36;;;;;;;6.20;2.25;;;;;;;;;;5036382;28;20141;-70
2022/09/04 04:38:11;;;;;;;9.40;2.83;;;;;;;;;;5031534;28;20045;-70
2022/09/04 04:40:39;;;;;;;4.00;2.05;;;;;;;;;;5037310;28;20130;-70
2022/09/04 04:43:19;;;;;;;4.75;2.80;;;;;;;;;;5035403;28;20113;-70
2022/09/04 04:45:59;;;;;;;7.82;2.20;;;;;;;;;;5032321;28;20149;-70
2022/09/04 04:48:31;;;;;;;7.03;2.25;;;;;;;;;;5044094;28;20045;-70
2022/09/04 04:51:05;;;;;;;5.97;2.35;;;;;;;;;;5043349;28;20087;-70
2022/09/04 04:53:41;;;;;;;13.98;2.90;;;;;;;;;;5042702;28;20154;-70
2022/09/04 04:56:13;;;;;;;6.15;2.10;;;;;;;;;;5041256;28;20064;-70
2022/09/04 04:58:42;;;;;;;13.48;3.15;;;;;;;;;;5035818;28;20049;-70
2022/09/04 05:01:14;;;;;;;7.88;2.30;;;;;;;;;;5043970;28;20061;-71
2022/09/04 05:03:48;;;;;;;9.75;2.47;;;;;;;;;;5040454;28;20037;-70
2022/09/04 05:06:26;;;;;;;6.13;2.55;;;;;;;;;;5051055;28;20077;-70
2022/09/04 05:08:57;;;;;;;6.93;2.65;;;;;;;;;;5031445;28;20053;-70
2022/09/04 05:11:26;;;;;;;4.82;2.35;;;;;;;;;;5032301;28;20075;-70
2022/09/04 05:14:08;;;;;;;7.50;2.30;;;;;;;;;;5037398;28;20045;-69
2022/09/04 05:16:47;;;;;;;5.85;2.53;;;;;;;;;;5073714;28;20128;-70
2022/09/04 05:19:14;;;;;;;7.50;2.47;;;;;;;;;;5044617;28;20124;-70
2022/09/04 05:21:46;;;;;;;6.63;2.45;;;;;;;;;;5044171;28;20499;-70
2022/09/04 05:24:17;;;;;;;7.10;2.05;;;;;;;;;;5046344;28;20546;-70
2022/09/04 05:26:51;;;;;;;4.78;2.42;;;;;;;;;;5047945;28;20460;-69
2022/09/04 05:29:30;;;;;;;5.38;2.50;;;;;;;;;;5038929;28;20140;-70
2022/09/04 05:32:00;;;;;;;5.78;2.35;;;;;;;;;;5039027;28;20049;-70
2022/09/04 05:34:52;;;;;;;7.38;2.22;;;;;;;;;;5042954;28;20043;-70
2022/09/04 05:37:23;;;;;;;6.20;2.42;;;;;;;;;;5043466;28;20113;-69
2022/09/04 05:40:00;;;;;;;6.03;2.42;;;;;;;;;;5039015;28;20058;-69
2022/09/04 05:42:46;;;;;;;7.00;2.40;;;;;;;;;;5043295;28;20037;-69
2022/09/04 05:45:13;;;;;;;7.45;2.20;;;;;;;;;;5041656;28;20154;-69
2022/09/04 05:47:47;;;;;;;5.28;2.10;;;;;;;;;;5043133;28;20560;-69
2022/09/04 05:50:20;;;;;;;7.22;2.38;;;;;;;;;;5042415;28;20183;-70
2022/09/04 05:53:00;;;;;;;4.47;2.35;;;;;;;;;;5047429;28;20163;-70
2022/09/04 05:55:31;;;;;;;6.53;2.22;;;;;;;;;;5047101;28;20132;-68
2022/09/04 05:58:05;;;;;;;9.48;2.80;;;;;;;;;;5054135;28;20048;-69
2022/09/04 06:00:44;;;;;;;7.80;2.83;;;;;;;;;;5054739;28;20041;-68
2022/09/04 06:03:19;;;;;;;5.68;2.45;;;;;;;;;;5041412;28;20041;-68
2022/09/04 06:05:53;;;;;;;9.30;2.58;;;;;;;;;;5043788;28;20033;-68
2022/09/04 06:08:26;;;;;;;6.13;2.47;;;;;;;;;;5034043;28;20156;-72
2022/09/04 06:10:58;;;;;;;7.03;2.33;;;;;;;;;;5045230;28;21809;-69
2022/09/04 06:13:43;;;;;;;4.65;2.35;;;;;;;;;;5039936;28;20053;-69
2022/09/04 06:16:33;;;;;;;9.07;2.30;;;;;;;;;;5042462;28;20088;-70
2022/09/04 06:19:07;;;;;;;6.65;2.17;;;;;;;;;;5039236;28;20071;-69
2022/09/04 06:21:40;;;;;;;8.50;2.50;;;;;;;;;;5044622;28;20730;-68
2022/09/04 06:24:15;;;;;;;6.30;2.58;;;;;;;;;;5045006;28;20048;-69
2022/09/04 06:26:57;;;;;;;6.10;2.50;;;;;;;;;;5049329;28;20135;-69
2022/09/04 06:29:23;;;;;;;5.80;2.25;;;;;;;;;;5039585;28;20052;-68
2022/09/04 06:31:50;;;;;;;6.68;2.10;;;;;;;;;;5042524;28;20053;-68
2022/09/04 06:34:26;;;;;;;8.38;2.13;;;;;;;;;;5043732;28;20055;-69
2022/09/04 06:37:00;;;;;;;5.38;2.50;;;;;;;;;;5046241;28;20083;-68
2022/09/04 06:39:26;;;;;;;;;;;;;;;;;;5041905;28;20037;-68
2022/09/04 06:41:52;;;;;;;4.93;2.60;;;;;;;;;;5040232;28;19929;-68
2022/09/04 06:44:18;;;;;;;10.50;2.60;;;;;;;;;;5040878;28;20048;-69
2022/09/04 06:46:44;;;;;;;8.32;2.25;;;;;;;;;;5044849;28;20080;-69
2022/09/04 06:49:20;;;;;;;6.03;2.30;;;;;;;;;;5045022;28;20183;-68
2022/09/04 06:51:51;;;;;;;6.85;2.42;;;;;;;;;;5041322;28;20080;-69
2022/09/04 06:54:21;;;;;;;10.23;2.50;;;;;;;;;;5043835;28;20045;-70
2022/09/04 06:56:54;;;;;;;5.47;2.40;;;;;;;;;;5044369;28;20064;-69
2022/09/04 06:59:29;;;;;;;5.60;2.30;;;;;;;;;;5042400;28;20098;-69
2022/09/04 07:02:04;;;;;;;5.28;2.15;;;;;;;;;;5039734;28;20053;-69
2022/09/04 07:04:31;;;;;;;7.60;2.67;;;;;;;;;;5047616;28;20052;-70
2022/09/04 07:07:01;;;;;;;4.80;2.30;;;;;;;;;;5043279;28;20436;-70
2022/09/04 07:09:32;;;;;;;8.43;2.15;;;;;;;;;;5043701;28;20484;-70
2022/09/04 07:12:16;;;;;;;13.68;2.75;;;;;;;;;;5048382;28;20052;-70
2022/09/04 07:14:43;;;;;;;;;;;;;;;;;;5043234;28;20126;-69
2022/09/04 07:17:24;;;;;;;8.70;2.97;;;;;;;;;;5049890;28;19924;-68
2022/09/04 07:20:12;;;;;;;8.95;2.40;;;;;;;;;;5052265;28;20041;-71
2022/09/04 07:22:47;;;;;;;6.78;2.20;;;;;;;;;;5052858;28;20037;-71
2022/09/04 07:25:22;;;;;;;7.10;2.80;;;;;;;;;;5049443;28;20049;-70
2022/09/04 07:27:54;;;;;;;5.70;2.63;;;;;;;;;;5043835;28;20060;-70
2022/09/04 07:30:24;;;;;;;6.13;1.92;;;;;;;;;;5047228;28;20056;-70
2022/09/04 07:32:50;;;;;;;8.75;2.67;;;;;;;;;;5039202;28;20491;-70
2022/09/04 07:35:30;;;;;;;8.40;2.80;;;;;;;;;;5039187;28;20091;-71
2022/09/04 07:38:03;;;;;;;15.13;2.67;;;;;;;;;;5044585;28;20037;-71
2022/09/04 07:40:33;;;;;;;5.75;2.47;;;;;;;;;;5040088;28;20046;-70
2022/09/04 07:43:07;;;;;;;8.85;2.75;;;;;;;;;;5043646;28;20049;-70
2022/09/04 07:45:37;;;;;;;14.07;2.85;;;;;;;;;;5050398;28;20044;-71
2022/09/04 07:48:06;;;;;;;7.82;2.83;;;;;;;;;;5042988;28;20066;-70
2022/09/04 07:50:38;;;;;;;6.07;1.85;;;;;;;;;;5057168;28;20052;-71
2022/09/04 07:53:06;;;;;;;7.38;2.47;;;;;;;;;;5054540;28;20408;-71
2022/09/04 07:55:39;;;;;;;9.40;2.67;;;;;;;;;;5053782;28;20060;-70
2022/09/04 07:58:06;;;;;;;5.45;2.20;;;;;;;;;;5055518;28;20046;-70
2022/09/04 08:00:39;;;;;;;4.97;2.33;;;;;;;;;;5049271;28;20941;-72
2022/09/04 08:03:10;;;;;;;8.95;2.47;;;;;;;;;;5052218;28;20060;-70
2022/09/04 08:05:40;;;;;;;5.35;2.22;;;;;;;;;;5051184;28;20068;-71
2022/09/04 08:08:22;;;;;;;9.07;2.60;;;;;;;;;;5044517;28;20036;-71
2022/09/04 08:11:15;;;;;;;7.57;2.10;;;;;;;;;;5048077;28;20046;-71
2022/09/04 08:13:48;;;;;;;6.43;2.35;;;;;;;;;;5042470;28;20041;-71
2022/09/04 08:16:34;;;;;;;7.75;2.47;;;;;;;;;;5045402;28;20032;-70
2022/09/04 08:19:17;;;;;;;6.68;2.60;;;;;;;;;;5046804;28;20119;-70
2022/09/04 08:21:44;;;;;;;8.38;3.15;;;;;;;;;;5040745;28;20055;-71
2022/09/04 08:24:16;;;;;;;4.47;2.38;;;;;;;;;;5039964;28;20050;-71
2022/09/04 08:26:53;;;;;;;6.13;2.30;;;;;;;;;;5034499;28;20049;-71
2022/09/04 08:29:25;;;;;;;6.97;2.10;;;;;;;;;;5073620;28;20053;-70
2022/09/04 08:32:03;;;;;;;5.90;2.50;;;;;;;;;;5046600;28;20116;-70
2022/09/04 08:34:42;;;;;;;4.82;1.95;;;;;;;;;;5058553;28;20049;-71
2022/09/04 08:37:16;;;;;;;5.05;2.15;;;;;;;;;;5054733;28;20041;-70
2022/09/04 08:39:42;;;;;;;;;;;;;;;;;;5052668;28;20979;-71
2022/09/04 08:42:21;;;;;;;5.25;2.45;;;;;;;;;;5046266;28;19970;-71
2022/09/04 08:44:47;;;;;;;7.55;2.53;;;;;;;;;;5045812;28;20056;-71
2022/09/04 08:47:37;;;;;;;8.07;2.47;;;;;;;;;;5049858;28;20119;-71
2022/09/04 08:50:03;;;;;;;5.30;2.03;;;;;;;;;;5052076;28;20140;-71
2022/09/04 08:52:49;;;;;;;4.47;2.00;;;;;;;;;;5049550;28;20104;-71
2022/09/04 08:55:29;;;;;;;7.22;2.30;;;;;;;;;;5047217;28;20057;-71
2022/09/04 08:57:56;;;;;;;4.18;1.95;;;;;;;;;;5042821;28;20045;-70
2022/09/04 09:00:33;;;;;;;4.97;2.30;;;;;;;;;;5050710;28;20510;-71
2022/09/04 09:03:06;;;;;;;4.85;2.00;;;;;;;;;;5048750;28;20092;-70
2022/09/04 09:05:46;;;;;;;4.88;2.30;;;;;;;;;;5047575;28;20057;-71
2022/09/04 09:08:19;;;;;;;5.45;2.20;;;;;;;;;;5045727;28;20036;-71
2022/09/04 09:10:46;;;;;;;5.18;1.92;;;;;;;;;;5049168;28;20052;-71
2022/09/04 09:13:25;;;;;;;7.65;2.28;;;;;;;;;;5046853;28;20041;-71
2022/09/04 09:15:56;;;;;;;9.27;2.50;;;;;;;;;;5047317;28;20040;-70
2022/09/04 09:18:30;;;;;;;9.05;1.95;;;;;;;;;;5061189;28;20049;-71
2022/09/04 09:21:05;;;;;;;4.97;2.42;;;;;;;;;;5044802;28;20074;-71
2022/09/04 09:23:40;;;;;;;8.30;2.13;;;;;;;;;;5060096;28;20120;-71
2022/09/04 09:26:07;;;;;;;5.28;2.25;;;;;;;;;;5047391;28;20484;-71
2022/09/04 09:28:34;;;;;;;7.53;2.15;;;;;;;;;;5052585;28;20080;-71
2022/09/04 09:31:14;;;;;;;7.28;2.25;;;;;;;;;;5051695;28;20072;-71
2022/09/04 09:33:51;;;;;;;6.32;2.00;;;;;;;;;;5055822;28;20040;-70
2022/09/04 09:36:34;;;;;;;6.10;2.30;;;;;;;;;;5050615;28;20052;-70
2022/09/04 09:39:04;;;;;;;7.43;2.00;;;;;;;;;;5048605;28;20048;-70
2022/09/04 09:41:44;;;;;;;5.95;1.90;;;;;;;;;;5047339;28;20061;-71
2022/09/04 09:44:20;;;;;;;7.80;2.05;;;;;;;;;;5053402;28;20374;-70
2022/09/04 09:46:53;;;;;;;5.40;2.05;;;;;;;;;;5050861;28;20116;-71
2022/09/04 09:49:27;;;;;;;5.38;2.05;;;;;;;;;;5048675;28;20067;-71
2022/09/04 09:52:02;;;;;;;7.93;2.08;;;;;;;;;;5053233;28;20466;-70
2022/09/04 09:54:47;;;;;;;5.95;1.52;;;;;;;;;;5052668;28;20438;-71
2022/09/04 09:57:21;;;;;;;5.90;1.55;;;;;;;;;;5044017;28;20064;-71
2022/09/04 10:00:10;;;;;;;7.00;1.90;;;;;;;;;;5041556;28;20096;-71
2022/09/04 10:02:55;;;;;;;6.05;1.75;;;;;;;;;;5049717;28;20083;-71
2022/09/04 10:05:36;;;;;;;4.80;1.58;;;;;;;;;;5054550;28;20049;-71
2022/09/04 10:08:11;;;;;;;5.68;2.05;;;;;;;;;;5047078;28;20055;-70
2022/09/04 10:10:59;;;;;;;5.47;1.60;;;;;;;;;;5045974;28;20094;-70
2022/09/04 10:13:44;;;;;;;6.63;1.85;;;;;;;;;;5049679;28;20111;-70
2022/09/04 10:16:19;;;;;;;5.60;1.83;;;;;;;;;;5044118;28;20447;-70
2022/09/04 10:18:52;;;;;;;4.35;1.65;;;;;;;;;;5046796;28;20413;-70
2022/09/04 10:21:19;;;;;;;4.38;1.83;;;;;;;;;;5042391;28;20092;-63
2022/09/04 10:23:59;;;;;;;3.83;1.80;;;;;;;;;;5042899;28;20457;-63
2022/09/04 10:26:44;;;;;;;3.65;1.60;;;;;;;;;;5040372;28;20037;-62
2022/09/04 10:29:25;;;;;;;4.72;1.77;;;;;;;;;;5035565;28;20492;-63
2022/09/04 10:31:54;;;;;;;5.75;1.60;;;;;;;;;;5045297;28;20074;-63
2022/09/04 10:34:32;;;;;;;4.25;1.42;;;;;;;;;;5043169;28;20071;-63
2022/09/04 10:37:09;;;;;;;5.43;1.48;;;;;;;;;;5046720;28;20100;-63
2022/09/04 10:42:44;;;;;;;2.85;1.20;;;;;;;;;;5042613;28;20052;-63
2022/09/04 10:45:15;;;;;;;7.47;1.25;;;;;;;;;;5049594;28;20049;-63
2022/09/04 10:47:51;;;;;;;3.55;1.50;;;;;;;;;;5049925;28;20568;-63
2022/09/04 10:50:29;;;;;;;4.45;1.40;;;;;;;;;;5046723;28;20138;-63
2022/09/04 10:53:04;;;;;;;4.38;1.30;;;;;;;;;;5051451;28;20131;-71
2022/09/04 10:55:42;;;;;;;6.40;1.40;;;;;;;;;;5048616;28;20091;-66
2022/09/04 10:58:15;;;;;;;4.72;1.30;;;;;;;;;;5052704;28;20048;-62
2022/09/04 11:00:54;;;;;;;4.35;1.20;;;;;;;;;;5053344;28;20048;-66
2022/09/04 11:03:31;;;;;;;3.10;1.08;;;;;;;;;;5041529;28;20437;-66
2022/09/04 11:06:17;;;;;;;4.70;1.85;;;;;;;;;;5061163;28;20113;-66
2022/09/04 11:08:43;;;;;;;5.78;1.30;;;;;;;;;;5053237;28;20036;-66
2022/09/04 11:11:33;;;;;;;3.95;1.40;;;;;;;;;;5050738;28;20115;-67
2022/09/04 11:14:18;;;;;;;5.20;1.55;;;;;;;;;;5045629;28;20037;-66
2022/09/04 11:17:04;;;;;;;2.55;1.23;;;;;;;;;;5050811;28;20095;-66
2022/09/04 11:19:42;;;;;;;5.32;1.38;;;;;;;;;;5039035;28;20123;-66
2022/09/04 11:22:33;;;;;;;4.45;1.15;;;;;;;;;;5037217;28;20045;-67
2022/09/04 11:25:07;;;;;;;5.30;1.63;;;;;;;;;;5043217;28;20045;-68
2022/09/04 11:27:43;;;;;;;5.22;1.17;;;;;;;;;;5050041;28;20045;-66
2022/09/04 11:30:10;;;;;;;3.20;1.40;;;;;;;;;;5044912;28;20464;-67
2022/09/04 11:32:39;;;;;;;3.13;1.17;;;;;;;;;;5048148;28;20041;-67
2022/09/04 11:35:05;;;;;;;3.30;1.30;;;;;;;;;;5052638;28;20051;-67
2022/09/04 11:37:32;;;;;;;8.98;1.30;;;;;;;;;;5059237;28;20484;-67
2022/09/04 11:40:10;;;;;;;4.35;1.30;;;;;;;;;;5051454;28;20063;-67
2022/09/04 11:42:45;;;;;;;4.97;1.35;;;;;;;;;;5045772;28;20485;-67
2022/09/04 11:45:30;;;;;;;2.92;1.20;;;;;;;;;;5053524;28;20378;-67
2022/09/04 11:48:00;;;;;;;3.63;1.17;;;;;;;;;;5050783;28;20041;-67
2022/09/04 11:50:37;;;;;;;3.90;1.10;;;;;;;;;;5057309;28;20064;-66
2022/09/04 11:53:14;;;;;;;3.30;1.35;;;;;;;;;;5050413;28;20053;-67
2022/09/04 11:55:43;;;;;;;5.30;1.65;;;;;;;;;;5047063;28;20409;-67
2022/09/04 11:58:10;;;;;;;7.07;1.50;;;;;;;;;;5051618;28;20037;-67
2022/09/04 12:00:43;;;;;;;6.03;1.30;;;;;;;;;;5065837;28;20055;-66
2022/09/04 12:03:12;;;;;;;3.47;1.50;;;;;;;;;;5049042;28;20044;-66
2022/09/04 12:05:43;;;;;;;5.35;1.02;;;;;;;;;;5050690;28;20119;-67
2022/09/04 12:08:24;;;;;;;4.65;1.30;;;;;;;;;;5053610;28;20538;-67
2022/09/04 12:10:54;;;;;;;2.80;1.20;;;;;;;;;;5051730;28;20037;-67
2022/09/04 12:13:38;;;;;;;7.70;1.35;;;;;;;;;;5048387;28;20060;-67
2022/09/04 12:16:05;;;;;;;3.72;1.10;;;;;;;;;;5024912;28;20045;-67
2022/09/04 12:18:53;;;;;;;6.55;1.45;;;;;;;;;;5050256;28;20155;-67
2022/09/04 12:21:39;;;;;;;4.00;1.20;;;;;;;;;;5037366;28;20096;-67
2022/09/04 12:24:24;;;;;;;3.05;1.20;;;;;;;;;;5050370;28;20105;-67
2022/09/04 12:27:11;;;;;;;2.30;1.10;;;;;;;;;;5038548;28;20055;-67
2022/09/04 12:29:46;;;;;;;3.40;1.55;;;;;;;;;;5058344;28;20060;-67
2022/09/04 12:32:19;;;;;;;3.53;1.20;;;;;;;;;;5050519;28;20326;-67
2022/09/04 12:34:53;;;;;;;3.83;1.40;;;;;;;;;;5051469;28;20140;-67
2022/09/04 12:37:31;;;;;;;3.55;1.20;;;;;;;;;;5052739;28;20051;-67
2022/09/04 12:39:57;;;;;;;4.13;1.30;;;;;;;;;;5055246;28;20083;-66
2022/09/04 12:42:26;;;;;;;5.25;0.98;;;;;;;;;;5053446;28;20044;-67
2022/09/04 12:44:52;;;;;;;4.25;1.40;;;;;;;;;;5054005;28;20043;-67
2022/09/04 12:47:27;;;;;;;2.65;1.30;;;;;;;;;;5034234;28;20041;-67
2022/09/04 12:50:14;;;;;;;2.97;1.45;;;;;;;;;;5038630;28;20045;-67
2022/09/04 12:52:46;;;;;;;4.15;1.38;;;;;;;;;;5043687;28;20105;-71
2022/09/04 12:55:15;;;;;;;2.20;1.20;;;;;;;;;;5052357;28;20045;-70
2022/09/04 12:57:54;;;;;;;3.50;1.38;;;;;;;;;;5053196;28;20058;-71
2022/09/04 13:00:22;;;;;;;2.97;1.30;;;;;;;;;;5055596;28;20547;-71
2022/09/04 13:02:49;;;;;;;4.60;1.30;;;;;;;;;;5061645;28;20044;-71
2022/09/04 13:05:16;;;;;;;4.25;1.35;;;;;;;;;;5054057;28;20056;-70
2022/09/04 13:07:49;;;;;;;5.55;1.45;;;;;;;;;;5063687;28;20132;-71
2022/09/04 13:10:21;;;;;;;4.60;1.73;;;;;;;;;;5047391;28;20045;-71
2022/09/04 13:13:00;;;;;;;2.97;1.45;;;;;;;;;;5054046;28;20497;-71
2022/09/04 13:15:39;;;;;;;3.97;1.25;;;;;;;;;;5050707;28;20397;-71
2022/09/04 13:18:07;;;;;;;3.30;1.30;;;;;;;;;;5058490;28;20045;-71
2022/09/04 13:20:39;;;;;;;4.68;1.40;;;;;;;;;;5053438;28;20044;-71
2022/09/04 13:23:06;;;;;;;4.18;1.27;;;;;;;;;;5053456;28;20151;-72
2022/09/04 13:25:32;;;;;;;3.85;1.40;;;;;;;;;;5043963;28;20080;-72
2022/09/04 13:27:58;;;;;;;6.05;1.35;;;;;;;;;;5061751;28;20059;-70
2022/09/04 13:30:25;;;;;;;2.35;1.20;;;;;;;;;;5053659;28;20041;-72
2022/09/04 13:33:02;;;;;;;6.95;1.40;;;;;;;;;;5053695;28;20469;-71
2022/09/04 13:35:48;;;;;;;3.08;1.33;;;;;;;;;;5053973;28;20483;-71
2022/09/04 13:38:25;;;;;;;3.70;1.60;;;;;;;;;;5063001;28;20048;-71
2022/09/04 13:40:59;;;;;;;4.78;1.67;;;;;;;;;;5053183;28;20041;-67
2022/09/04 13:43:31;;;;;;;2.60;1.20;;;;;;;;;;5053236;28;20048;-67
2022/09/04 13:45:59;;;;;;;3.85;1.35;;;;;;;;;;5066574;28;20380;-67
2022/09/04 13:48:25;;;;;;;4.22;1.65;;;;;;;;;;5057585;28;20048;-68
2022/09/04 13:50:54;;;;;;;2.83;1.58;;;;;;;;;;5049697;28;20455;-67
2022/09/04 13:53:29;;;;;;;5.18;1.80;;;;;;;;;;5054038;28;20049;-67
2022/09/04 13:55:59;;;;;;;3.47;1.40;;;;;;;;;;5058582;28;20045;-67
2022/09/04 13:58:39;;;;;;;3.83;1.40;;;;;;;;;;5059764;28;20094;-69
2022/09/04 14:01:08;;;;;;;3.80;1.40;;;;;;;;;;5053050;28;20056;-67
2022/09/04 14:03:39;;;;;;;5.30;1.55;;;;;;;;;;5052535;28;20048;-67
2022/09/04 14:06:07;;;;;;;5.80;1.55;;;;;;;;;;5053062;28;20069;-67
2022/09/04 14:08:35;;;;;;;4.78;1.50;;;;;;;;;;5065401;28;20125;-66
2022/09/04 14:11:10;;;;;;;3.30;1.30;;;;;;;;;;5060557;28;20045;-66
2022/09/04 14:13:36;;;;;;;4.68;1.20;;;;;;;;;;5057289;28;20048;-67
2022/09/04 14:16:05;;;;;;;3.00;1.20;;;;;;;;;;5054107;28;20090;-68
2022/09/04 14:18:43;;;;;;;5.43;1.63;;;;;;;;;;5053776;28;20057;-67
2022/09/04 14:21:13;;;;;;;2.80;1.40;;;;;;;;;;5039882;28;20377;-67
2022/09/04 14:23:46;;;;;;;5.00;1.35;;;;;;;;;;5062105;28;20109;-67
2022/09/04 14:26:25;;;;;;;3.50;1.70;;;;;;;;;;5050151;28;20051;-67
2022/09/04 14:28:59;;;;;;;6.63;1.90;;;;;;;;;;5051365;28;20037;-67
2022/09/04 14:31:40;;;;;;;7.28;1.50;;;;;;;;;;5050116;28;20044;-68
2022/09/04 14:34:09;;;;;;;3.70;1.48;;;;;;;;;;5064193;28;20040;-67
2022/09/04 14:36:48;;;;;;;4.30;1.70;;;;;;;;;;5064238;28;20128;-67
2022/09/04 14:39:21;;;;;;;6.07;1.65;;;;;;;;;;5042231;28;20056;-67
2022/09/04 14:41:47;;;;;;;;;;;;;;;;;;5054924;28;20037;-68
2022/09/04 14:44:16;;;;;;;3.38;1.50;;;;;;;;;;5052665;28;20531;-68
2022/09/04 14:47:02;;;;;;;6.35;1.52;;;;;;;;;;5052810;28;20048;-67
2022/09/04 14:49:30;;;;;;;3.30;1.33;;;;;;;;;;5049960;28;20049;-68
2022/09/04 14:51:58;;;;;;;6.30;1.48;;;;;;;;;;5037589;28;20057;-68
2022/09/04 14:54:26;;;;;;;7.97;1.90;;;;;;;;;;5056618;28;20158;-68
2022/09/04 14:56:54;;;;;;;4.05;1.50;;;;;;;;;;5053038;28;20045;-68
2022/09/04 14:59:24;;;;;;;4.90;1.60;;;;;;;;;;5035450;28;20041;-67
2022/09/04 15:02:02;;;;;;;4.55;1.77;;;;;;;;;;5049303;28;20047;-68
2022/09/04 15:04:33;;;;;;;2.90;1.58;;;;;;;;;;5034967;28;20049;-68
2022/09/04 15:07:04;;;;;;;5.35;1.80;;;;;;;;;;5051182;28;20088;-67
2022/09/04 15:09:34;;;;;;;5.47;1.60;;;;;;;;;;5055470;28;20119;-67
2022/09/04 15:12:15;;;;;;;4.18;1.42;;;;;;;;;;5037164;28;20033;-67
2022/09/04 15:14:42;;;;;;;5.82;1.67;;;;;;;;;;5065956;28;20045;-67
2022/09/04 15:17:13;;;;;;;6.53;1.60;;;;;;;;;;5050389;28;20076;-67
2022/09/04 15:19:49;;;;;;;3.05;1.38;;;;;;;;;;5053454;28;20052;-67
2022/09/04 15:22:18;;;;;;;2.95;1.35;;;;;;;;;;5058329;28;20033;-67
2022/09/04 15:24:45;;;;;;;2.78;1.30;;;;;;;;;;5051789;28;20041;-67
2022/09/04 15:27:18;;;;;;;4.32;1.42;;;;;;;;;;5048729;28;20036;-67